Time;durP1;ratioP1;P1;durP2;ratioP2;P2;SDS_P1;SDS_P2;PMS_P1;PMS_P2;Temp;Humidity;BMP_temperature;BMP_pressure;BME280_temperature;BME280_humidity;BME280_pressure;Samples;Min_cycle;Max_cycle;Signal;HPM_P1;HPM_P2
2023/04/24 00:02:17;;;;;;;;;3.00;3.00;;;;;;;;4979192;28;45360;-77
2023/04/24 00:04:45;;;;;;;;;3.00;3.00;;;;;;;;4978529;28;45309;-76
2023/04/24 00:07:10;;;;;;;;;3.00;3.00;;;;;;;;4978077;28;45428;-76
2023/04/24 00:09:36;;;;;;;;;4.25;2.00;;;;;;;;4978367;28;45441;-77
2023/04/24 00:12:04;;;;;;;;;2.75;2.75;;;;;;;;4979531;28;45433;-76
2023/04/24 00:14:29;;;;;;;;;3.00;2.25;;;;;;;;4980100;28;45318;-77
2023/04/24 00:16:54;;;;;;;;;1.00;1.00;;;;;;;;4980174;28;47027;-76
2023/04/24 00:19:21;;;;;;;;;4.00;2.75;;;;;;;;4980987;28;45266;-78
2023/04/24 00:21:46;;;;;;;;;3.75;3.75;;;;;;;;4980750;28;45364;-77
2023/04/24 00:24:11;;;;;;;;;1.50;1.50;;;;;;;;4979014;28;45472;-77
2023/04/24 00:26:36;;;;;;;;;3.50;3.00;;;;;;;;4978661;28;45888;-77
2023/04/24 00:29:02;;;;;;;;;2.75;2.75;;;;;;;;4978508;28;45392;-77
2023/04/24 00:31:27;;;;;;;;;1.25;1.25;;;;;;;;4978323;28;45309;-73
2023/04/24 00:33:52;;;;;;;;;3.00;3.00;;;;;;;;4978608;28;45266;-73
2023/04/24 00:36:19;;;;;;;;;7.00;3.75;;;;;;;;4978382;28;47134;-73
2023/04/24 00:38:44;;;;;;;;;4.00;3.00;;;;;;;;4977061;28;45397;-73
2023/04/24 00:41:09;;;;;;;;;3.00;3.00;;;;;;;;4978526;28;45373;-73
2023/04/24 00:43:35;;;;;;;;;2.75;2.75;;;;;;;;4976928;28;45492;-73
2023/04/24 00:46:01;;;;;;;;;6.00;4.25;;;;;;;;4976432;28;45629;-73
2023/04/24 00:48:27;;;;;;;;;4.00;4.00;;;;;;;;4972323;28;45438;-73
2023/04/24 00:50:52;;;;;;;;;2.50;2.50;;;;;;;;4958495;28;45430;-73
2023/04/24 00:53:18;;;;;;;;;3.25;3.00;;;;;;;;4977786;28;45533;-73
2023/04/24 00:55:43;;;;;;;;;3.75;2.75;;;;;;;;4978006;28;46110;-72
2023/04/24 00:58:08;;;;;;;;;3.25;3.25;;;;;;;;4977719;28;45353;-73
2023/04/24 01:00:34;;;;;;;;;3.75;2.25;;;;;;;;4977769;28;45396;-73
2023/04/24 01:03:01;;;;;;;;;4.50;3.00;;;;;;;;4977836;28;45384;-73
2023/04/24 01:05:27;;;;;;;;;3.50;2.00;;;;;;;;4977665;28;45463;-73
2023/04/24 01:07:52;;;;;;;;;3.25;3.25;;;;;;;;4977751;28;45317;-73
2023/04/24 01:10:20;;;;;;;;;3.00;1.50;;;;;;;;4977253;28;45345;-73
2023/04/24 01:12:45;;;;;;;;;5.00;4.00;;;;;;;;4977795;28;45518;-73
2023/04/24 01:15:10;;;;;;;;;4.25;3.75;;;;;;;;4977449;28;45609;-73
2023/04/24 01:17:36;;;;;;;;;2.50;2.50;;;;;;;;4977545;28;45491;-73
2023/04/24 01:20:04;;;;;;;;;2.25;2.25;;;;;;;;4977646;28;45376;-73
2023/04/24 01:22:29;;;;;;;;;2.25;2.25;;;;;;;;4977781;28;45311;-73
2023/04/24 01:24:54;;;;;;;;;3.25;2.00;;;;;;;;4977421;28;45305;-73
2023/04/24 01:27:20;;;;;;;;;4.00;1.00;;;;;;;;4977567;28;45309;-73
2023/04/24 01:29:45;;;;;;;;;5.25;2.25;;;;;;;;4977678;28;45349;-73
2023/04/24 01:32:10;;;;;;;;;4.25;4.25;;;;;;;;4977637;28;45331;-73
2023/04/24 01:34:36;;;;;;;;;3.75;3.00;;;;;;;;4977577;28;46317;-73
2023/04/24 01:37:01;;;;;;;;;3.50;3.00;;;;;;;;4977936;28;45839;-73
2023/04/24 01:39:28;;;;;;;;;3.00;3.00;;;;;;;;4977837;28;45342;-73
2023/04/24 01:41:53;;;;;;;;;4.75;3.75;;;;;;;;4978031;28;45365;-73
2023/04/24 01:44:19;;;;;;;;;3.00;3.00;;;;;;;;4976593;28;45805;-73
2023/04/24 01:46:44;;;;;;;;;3.25;3.00;;;;;;;;4976987;28;45388;-73
2023/04/24 01:49:10;;;;;;;;;2.75;1.50;;;;;;;;4965609;28;45464;-72
2023/04/24 01:51:35;;;;;;;;;3.25;1.75;;;;;;;;4957511;28;45406;-73
2023/04/24 01:54:00;;;;;;;;;3.00;3.00;;;;;;;;4956125;28;46215;-73
2023/04/24 01:56:27;;;;;;;;;2.00;2.00;;;;;;;;4957495;28;45444;-73
2023/04/24 01:58:53;;;;;;;;;3.00;3.00;;;;;;;;4958203;28;46054;-73
2023/04/24 02:01:19;;;;;;;;;4.50;4.50;;;;;;;;4976942;28;45488;-73
2023/04/24 02:03:45;;;;;;;;;3.75;2.75;;;;;;;;4976821;28;45364;-72
2023/04/24 02:06:10;;;;;;;;;3.75;3.00;;;;;;;;4976831;28;45356;-73
2023/04/24 02:08:35;;;;;;;;;6.00;3.25;;;;;;;;4976909;28;45456;-73
2023/04/24 02:11:01;;;;;;;;;2.25;2.25;;;;;;;;4976987;28;45431;-72
2023/04/24 02:13:27;;;;;;;;;3.50;3.00;;;;;;;;4976554;28;46293;-72
2023/04/24 02:15:52;;;;;;;;;2.50;2.50;;;;;;;;4976975;28;45320;-72
2023/04/24 02:18:17;;;;;;;;;3.50;3.50;;;;;;;;4976796;28;45314;-72
2023/04/24 02:20:42;;;;;;;;;6.25;3.75;;;;;;;;4976677;28;45484;-72
2023/04/24 02:23:07;;;;;;;;;4.75;3.00;;;;;;;;4975502;28;45920;-72
2023/04/24 02:25:33;;;;;;;;;3.00;3.00;;;;;;;;4976777;28;45831;-73
2023/04/24 02:27:58;;;;;;;;;5.00;2.25;;;;;;;;4976400;28;45397;-72
2023/04/24 02:30:23;;;;;;;;;3.25;3.00;;;;;;;;4976684;28;45549;-72
2023/04/24 02:32:49;;;;;;;;;5.00;3.25;;;;;;;;4976475;28;46492;-73
2023/04/24 02:35:14;;;;;;;;;3.25;2.25;;;;;;;;4976289;28;45372;-72
2023/04/24 02:37:39;;;;;;;;;3.00;3.00;;;;;;;;4975288;28;45635;-72
2023/04/24 02:40:05;;;;;;;;;3.50;2.00;;;;;;;;4976395;28;45414;-73
2023/04/24 02:42:31;;;;;;;;;4.00;4.00;;;;;;;;4975911;28;46128;-72
2023/04/24 02:44:56;;;;;;;;;2.00;1.00;;;;;;;;4976430;28;45318;-73
2023/04/24 02:47:21;;;;;;;;;4.00;3.00;;;;;;;;4976156;28;45421;-73
2023/04/24 02:49:46;;;;;;;;;3.00;3.00;;;;;;;;4959902;28;45460;-72
2023/04/24 02:52:12;;;;;;;;;5.00;2.25;;;;;;;;4956424;28;45399;-72
2023/04/24 02:54:37;;;;;;;;;4.00;3.75;;;;;;;;4956713;28;45670;-73
2023/04/24 02:57:02;;;;;;;;;2.00;2.00;;;;;;;;4956866;28;45328;-72
2023/04/24 02:59:28;;;;;;;;;4.50;2.00;;;;;;;;4956826;28;45390;-72
2023/04/24 03:01:54;;;;;;;;;2.25;2.25;;;;;;;;4955219;28;48381;-72
2023/04/24 03:04:20;;;;;;;;;3.00;3.00;;;;;;;;4968861;28;45341;-72
2023/04/24 03:06:45;;;;;;;;;4.00;2.75;;;;;;;;4975979;28;45360;-72
2023/04/24 03:09:11;;;;;;;;;7.00;4.25;;;;;;;;4976077;28;45405;-72
2023/04/24 03:11:36;;;;;;;;;3.25;3.00;;;;;;;;4975659;28;45882;-72
2023/04/24 03:14:01;;;;;;;;;3.50;2.25;;;;;;;;4975853;28;45377;-73
2023/04/24 03:16:26;;;;;;;;;3.75;3.75;;;;;;;;4976100;28;45327;-73
2023/04/24 03:18:51;;;;;;;;;4.50;4.00;;;;;;;;4975907;28;45306;-72
2023/04/24 03:21:17;;;;;;;;;2.50;2.50;;;;;;;;4976178;28;45371;-73
2023/04/24 03:23:42;;;;;;;;;1.00;1.00;;;;;;;;4975976;28;45495;-72
2023/04/24 03:26:07;;;;;;;;;5.25;3.00;;;;;;;;4975943;28;45427;-72
2023/04/24 03:28:32;;;;;;;;;3.00;3.00;;;;;;;;4976144;28;45298;-73
2023/04/24 03:30:58;;;;;;;;;3.00;3.00;;;;;;;;4975894;28;46176;-72
2023/04/24 03:33:23;;;;;;;;;2.50;2.00;;;;;;;;4976607;28;45303;-73
2023/04/24 03:35:48;;;;;;;;;2.75;2.00;;;;;;;;4980193;28;45273;-72
2023/04/24 03:38:13;;;;;;;;;3.25;2.25;;;;;;;;4981026;28;45352;-72
2023/04/24 03:40:38;;;;;;;;;2.75;2.25;;;;;;;;4980216;28;46084;-74
2023/04/24 03:43:04;;;;;;;;;3.00;3.00;;;;;;;;4979224;28;45342;-72
2023/04/24 03:45:29;;;;;;;;;2.75;2.75;;;;;;;;4977998;28;45579;-73
2023/04/24 03:47:54;;;;;;;;;2.25;2.25;;;;;;;;4977317;28;45380;-72
2023/04/24 03:50:20;;;;;;;;;3.00;3.00;;;;;;;;4959681;28;45513;-73
2023/04/24 03:52:45;;;;;;;;;2.00;2.00;;;;;;;;4959395;28;45447;-72
2023/04/24 03:55:12;;;;;;;;;3.00;3.00;;;;;;;;4959523;28;45370;-72
2023/04/24 03:57:37;;;;;;;;;2.25;2.25;;;;;;;;4959293;28;45873;-73
2023/04/24 04:00:05;;;;;;;;;4.00;3.00;;;;;;;;4968018;28;46266;-72
2023/04/24 04:02:30;;;;;;;;;2.75;2.75;;;;;;;;4977660;28;45407;-72
2023/04/24 04:04:55;;;;;;;;;1.50;1.50;;;;;;;;4978860;28;45422;-72
2023/04/24 04:07:20;;;;;;;;;4.50;3.50;;;;;;;;4978737;28;45374;-72
2023/04/24 04:09:45;;;;;;;;;5.00;4.00;;;;;;;;4978527;28;45317;-73
2023/04/24 04:12:10;;;;;;;;;2.00;2.00;;;;;;;;4978717;28;45581;-72
2023/04/24 04:14:36;;;;;;;;;2.25;2.25;;;;;;;;4978785;28;45456;-72
2023/04/24 04:17:01;;;;;;;;;2.50;2.50;;;;;;;;4978585;28;45326;-72
2023/04/24 04:19:26;;;;;;;;;4.25;3.25;;;;;;;;4978227;28;45412;-73
2023/04/24 04:21:53;;;;;;;;;0.50;0.50;;;;;;;;4978615;28;45355;-72
2023/04/24 04:24:20;;;;;;;;;2.25;2.25;;;;;;;;4978356;28;45475;-72
2023/04/24 04:26:46;;;;;;;;;3.00;3.00;;;;;;;;4978265;28;45394;-72
2023/04/24 04:29:12;;;;;;;;;3.25;3.25;;;;;;;;4978021;28;46729;-73
2023/04/24 04:31:37;;;;;;;;;3.75;3.75;;;;;;;;4978235;28;45410;-73
2023/04/24 04:34:02;;;;;;;;;3.50;3.50;;;;;;;;4978710;28;45384;-73
2023/04/24 04:36:29;;;;;;;;;2.75;2.75;;;;;;;;4978603;28;45389;-73
2023/04/24 04:38:54;;;;;;;;;3.50;3.50;;;;;;;;4976459;28;48202;-73
2023/04/24 04:41:20;;;;;;;;;3.25;2.00;;;;;;;;4978998;28;45312;-72
2023/04/24 04:43:46;;;;;;;;;4.50;4.00;;;;;;;;4978472;28;45309;-72
2023/04/24 04:46:11;;;;;;;;;4.25;3.00;;;;;;;;4977756;28;45382;-72
2023/04/24 04:48:37;;;;;;;;;3.75;3.75;;;;;;;;4970901;28;45329;-73
2023/04/24 04:51:02;;;;;;;;;4.50;4.50;;;;;;;;4961768;28;45345;-73
2023/04/24 04:53:27;;;;;;;;;3.75;3.75;;;;;;;;4978358;28;45732;-72
2023/04/24 04:55:52;;;;;;;;;3.00;3.00;;;;;;;;4978746;28;45368;-73
2023/04/24 04:58:18;;;;;;;;;3.25;3.25;;;;;;;;4978319;28;47483;-73
2023/04/24 05:00:44;;;;;;;;;4.25;4.25;;;;;;;;4977978;28;45654;-73
2023/04/24 05:03:09;;;;;;;;;6.00;6.00;;;;;;;;4977958;28;45794;-73
2023/04/24 05:05:34;;;;;;;;;3.50;3.00;;;;;;;;4977757;28;45456;-73
2023/04/24 05:07:59;;;;;;;;;3.50;3.50;;;;;;;;4977049;28;46521;-72
2023/04/24 05:10:24;;;;;;;;;3.00;3.00;;;;;;;;4976589;28;45493;-72
2023/04/24 05:12:50;;;;;;;;;7.50;6.25;;;;;;;;4977757;28;45480;-73
2023/04/24 05:15:15;;;;;;;;;3.00;2.00;;;;;;;;4976742;28;45560;-72
2023/04/24 05:17:40;;;;;;;;;4.25;4.25;;;;;;;;4977799;28;46363;-73
2023/04/24 05:20:06;;;;;;;;;3.00;3.00;;;;;;;;4975903;28;45421;-72
2023/04/24 05:22:31;;;;;;;;;7.25;5.00;;;;;;;;4976318;28;45406;-73
2023/04/24 05:24:57;;;;;;;;;4.50;4.50;;;;;;;;4977497;28;45525;-73
2023/04/24 05:27:22;;;;;;;;;7.00;4.00;;;;;;;;4977137;28;45698;-73
2023/04/24 05:29:47;;;;;;;;;5.75;5.75;;;;;;;;4977669;28;45440;-72
2023/04/24 05:32:12;;;;;;;;;5.75;4.75;;;;;;;;4977634;28;45451;-76
2023/04/24 05:34:37;;;;;;;;;4.25;4.00;;;;;;;;4977733;28;45397;-76
2023/04/24 05:37:03;;;;;;;;;5.75;4.50;;;;;;;;4977484;28;45967;-76
2023/04/24 05:39:28;;;;;;;;;6.25;5.00;;;;;;;;4977246;28;45478;-76
2023/04/24 05:41:54;;;;;;;;;6.00;5.00;;;;;;;;4977554;28;45378;-76
2023/04/24 05:44:20;;;;;;;;;4.75;4.00;;;;;;;;4975941;28;45385;-76
2023/04/24 05:46:45;;;;;;;;;3.00;3.00;;;;;;;;4977012;28;46377;-76
2023/04/24 05:49:10;;;;;;;;;5.25;4.75;;;;;;;;4964215;28;45752;-76
2023/04/24 05:51:35;;;;;;;;;8.25;8.25;;;;;;;;4957303;28;45803;-76
2023/04/24 05:54:02;;;;;;;;;8.00;6.00;;;;;;;;4957777;28;45301;-76
2023/04/24 05:56:28;;;;;;;;;6.00;6.00;;;;;;;;4971833;28;45472;-76
2023/04/24 05:58:53;;;;;;;;;7.00;6.00;;;;;;;;4976825;28;45321;-77
2023/04/24 06:01:19;;;;;;;;;8.25;8.00;;;;;;;;4977266;28;45407;-76
2023/04/24 06:03:44;;;;;;;;;6.00;5.00;;;;;;;;4975427;28;45431;-75
2023/04/24 06:06:10;;;;;;;;;4.75;4.50;;;;;;;;4976637;28;46127;-76
2023/04/24 06:08:35;;;;;;;;;6.00;6.00;;;;;;;;4975465;28;46247;-75
2023/04/24 06:11:00;;;;;;;;;7.75;6.75;;;;;;;;4976996;28;45364;-76
2023/04/24 06:13:26;;;;;;;;;7.50;5.00;;;;;;;;4976991;28;45431;-76
2023/04/24 06:15:51;;;;;;;;;6.25;6.25;;;;;;;;4976982;28;46032;-76
2023/04/24 06:18:16;;;;;;;;;7.00;7.00;;;;;;;;4976832;28;45417;-76
2023/04/24 06:20:41;;;;;;;;;7.00;6.50;;;;;;;;4976464;28;45320;-76
2023/04/24 06:23:06;;;;;;;;;9.75;6.00;;;;;;;;4976882;28;45371;-76
2023/04/24 06:25:32;;;;;;;;;10.25;7.25;;;;;;;;4975502;28;47599;-76
2023/04/24 06:27:57;;;;;;;;;7.50;7.50;;;;;;;;4976332;28;45309;-76
2023/04/24 06:30:22;;;;;;;;;9.75;9.00;;;;;;;;4976855;28;45330;-77
2023/04/24 06:32:48;;;;;;;;;7.50;5.25;;;;;;;;4976810;28;45380;-76
2023/04/24 06:35:13;;;;;;;;;10.00;9.00;;;;;;;;4976535;28;46283;-76
2023/04/24 06:37:39;;;;;;;;;7.50;7.50;;;;;;;;4976274;28;45461;-76
2023/04/24 06:40:05;;;;;;;;;12.25;8.50;;;;;;;;4976473;28;45345;-76
2023/04/24 06:42:30;;;;;;;;;12.00;10.50;;;;;;;;4975679;28;45432;-76
2023/04/24 06:44:55;;;;;;;;;9.50;8.00;;;;;;;;4975764;28;48675;-76
2023/04/24 06:47:20;;;;;;;;;10.75;10.00;;;;;;;;4976184;28;45336;-77
2023/04/24 06:49:46;;;;;;;;;8.25;8.00;;;;;;;;4961848;28;45294;-76
2023/04/24 06:52:11;;;;;;;;;13.00;11.75;;;;;;;;4958014;28;45588;-76
2023/04/24 06:54:36;;;;;;;;;10.00;8.75;;;;;;;;4959224;28;45298;-75
2023/04/24 06:57:02;;;;;;;;;9.25;8.25;;;;;;;;4957669;28;45330;-76
2023/04/24 06:59:28;;;;;;;;;8.75;8.75;;;;;;;;4956912;28;45352;-76
2023/04/24 07:01:53;;;;;;;;;12.50;12.50;;;;;;;;4956738;28;45307;-77
2023/04/24 07:04:18;;;;;;;;;10.50;10.00;;;;;;;;4969585;28;46365;-76
2023/04/24 07:06:46;;;;;;;;;14.00;10.00;;;;;;;;4975822;28;45634;-76
2023/04/24 07:09:13;;;;;;;;;10.50;10.50;;;;;;;;4975461;28;45385;-76
2023/04/24 07:11:40;;;;;;;;;11.75;11.75;;;;;;;;4975612;28;45520;-77
2023/04/24 07:14:05;;;;;;;;;11.00;9.50;;;;;;;;4975903;28;46622;-76
2023/04/24 07:16:30;;;;;;;;;4.00;3.50;;;;;;;;4975559;28;45353;-75
2023/04/24 07:18:56;;;;;;;;;10.75;8.25;;;;;;;;4975841;28;45532;-75
2023/04/24 07:21:21;;;;;;;;;10.25;9.75;;;;;;;;4975982;28;45365;-77
2023/04/24 07:23:46;;;;;;;;;11.00;10.00;;;;;;;;4975817;28;45425;-77
2023/04/24 07:26:12;;;;;;;;;10.75;7.75;;;;;;;;4975836;28;45472;-77
2023/04/24 07:28:37;;;;;;;;;8.75;8.75;;;;;;;;4975387;28;45428;-76
2023/04/24 07:31:02;;;;;;;;;13.25;12.50;;;;;;;;4975825;28;45480;-76
2023/04/24 07:33:27;;;;;;;;;3.00;1.00;;;;;;;;4975592;28;47045;-76
2023/04/24 07:35:53;;;;;;;;;8.25;8.00;;;;;;;;4975832;28;45325;-75
2023/04/24 07:38:21;;;;;;;;;11.00;11.00;;;;;;;;4974598;28;45335;-75
2023/04/24 07:40:46;;;;;;;;;9.50;8.50;;;;;;;;4974995;28;45365;-76
2023/04/24 07:43:12;;;;;;;;;16.75;15.50;;;;;;;;4975553;28;45343;-75
2023/04/24 07:45:37;;;;;;;;;11.00;10.00;;;;;;;;4975620;28;45302;-76
2023/04/24 07:48:03;;;;;;;;;11.00;10.50;;;;;;;;4973058;28;45617;-75
2023/04/24 07:50:28;;;;;;;;;9.75;9.50;;;;;;;;4956190;28;45377;-76
2023/04/24 07:52:53;;;;;;;;;9.00;9.00;;;;;;;;4956115;28;45381;-75
2023/04/24 07:55:18;;;;;;;;;13.00;11.25;;;;;;;;4961302;28;45387;-76
2023/04/24 07:57:43;;;;;;;;;12.00;10.00;;;;;;;;4975748;28;45309;-75
2023/04/24 08:00:09;;;;;;;;;11.75;10.75;;;;;;;;4975329;28;45436;-76
2023/04/24 08:02:35;;;;;;;;;10.75;8.50;;;;;;;;4975342;28;46414;-75
2023/04/24 08:05:00;;;;;;;;;11.50;11.25;;;;;;;;4975446;28;45520;-75
2023/04/24 08:07:25;;;;;;;;;14.50;13.75;;;;;;;;4975312;28;45362;-76
2023/04/24 08:09:50;;;;;;;;;13.75;13.75;;;;;;;;4975497;28;45321;-75
2023/04/24 08:12:16;;;;;;;;;12.00;10.25;;;;;;;;4975175;28;47198;-75
2023/04/24 08:14:41;;;;;;;;;15.75;13.50;;;;;;;;4975011;28;45275;-76
2023/04/24 08:17:06;;;;;;;;;12.50;12.00;;;;;;;;4975479;28;45263;-75
2023/04/24 08:19:31;;;;;;;;;14.00;12.00;;;;;;;;4975439;28;45299;-76
2023/04/24 08:21:56;;;;;;;;;12.75;12.00;;;;;;;;4978383;28;45479;-75
2023/04/24 08:24:22;;;;;;;;;11.75;10.75;;;;;;;;4978485;28;45337;-75
2023/04/24 08:26:50;;;;;;;;;14.00;13.00;;;;;;;;4978329;28;45439;-75
2023/04/24 08:29:15;;;;;;;;;6.75;5.50;;;;;;;;4978197;28;45529;-75
2023/04/24 08:31:41;;;;;;;;;6.75;4.75;;;;;;;;4978362;28;45377;-75
2023/04/24 08:34:06;;;;;;;;;12.00;12.00;;;;;;;;4978342;28;45428;-76
2023/04/24 08:36:31;;;;;;;;;15.75;13.00;;;;;;;;4978554;28;45479;-75
2023/04/24 08:38:56;;;;;;;;;17.75;14.75;;;;;;;;4976959;28;45348;-75
2023/04/24 08:41:25;;;;;;;;;11.75;11.00;;;;;;;;4978010;28;46316;-75
2023/04/24 08:43:51;;;;;;;;;14.25;14.00;;;;;;;;4977938;28;45496;-76
2023/04/24 08:46:16;;;;;;;;;22.00;15.50;;;;;;;;4978081;28;45378;-76
2023/04/24 08:48:41;;;;;;;;;18.00;17.25;;;;;;;;4970133;28;45369;-75
2023/04/24 08:51:07;;;;;;;;;19.00;18.75;;;;;;;;4962190;28;46144;-75
2023/04/24 08:53:33;;;;;;;;;17.25;14.00;;;;;;;;4977941;28;45285;-76
2023/04/24 08:56:01;;;;;;;;;20.25;17.00;;;;;;;;4978064;28;45360;-76
2023/04/24 08:58:26;;;;;;;;;22.25;18.25;;;;;;;;4977967;28;45309;-75
2023/04/24 09:00:54;;;;;;;;;9.00;9.00;;;;;;;;4976305;28;47292;-76
2023/04/24 09:03:20;;;;;;;;;13.50;13.25;;;;;;;;4977852;28;45393;-75
2023/04/24 09:05:47;;;;;;;;;14.50;13.75;;;;;;;;4977932;28;45349;-75
2023/04/24 09:08:15;;;;;;;;;11.75;11.75;;;;;;;;4977749;28;45424;-76
2023/04/24 09:10:41;;;;;;;;;17.00;14.75;;;;;;;;4977593;28;46232;-76
2023/04/24 09:13:08;;;;;;;;;17.50;14.75;;;;;;;;4976342;28;45527;-76
2023/04/24 09:15:34;;;;;;;;;17.50;16.75;;;;;;;;4977838;28;45460;-75
2023/04/24 09:17:59;;;;;;;;;20.75;15.00;;;;;;;;4977787;28;45365;-75
2023/04/24 09:20:25;;;;;;;;;12.00;12.00;;;;;;;;4977147;28;47260;-75
2023/04/24 09:22:53;;;;;;;;;22.50;17.50;;;;;;;;4976100;28;45403;-75
2023/04/24 09:25:18;;;;;;;;;21.50;21.50;;;;;;;;4977768;28;45346;-76
2023/04/24 09:27:45;;;;;;;;;18.00;15.75;;;;;;;;4977177;28;45372;-75
2023/04/24 09:30:10;;;;;;;;;18.50;17.00;;;;;;;;4977467;28;45594;-75
2023/04/24 09:32:37;;;;;;;;;17.25;14.75;;;;;;;;4977184;28;45366;-76
2023/04/24 09:35:07;;;;;;;;;15.75;13.00;;;;;;;;4977644;28;45431;-75
2023/04/24 09:37:35;;;;;;;;;19.75;16.00;;;;;;;;4976317;28;45468;-75
2023/04/24 09:40:13;;;;;;;;;15.00;13.75;;;;;;;;4975263;28;46925;-75
2023/04/24 09:42:39;;;;;;;;;17.00;15.00;;;;;;;;4977028;28;45420;-75
2023/04/24 09:45:08;;;;;;;;;16.25;15.50;;;;;;;;4977301;28;45408;-76
2023/04/24 09:47:39;;;;;;;;;16.50;15.50;;;;;;;;4977202;28;45305;-76
2023/04/24 09:50:15;;;;;;;;;21.00;17.25;;;;;;;;4957959;28;46288;-76
2023/04/24 09:52:55;;;;;;;;;16.50;15.00;;;;;;;;4973424;28;45319;-76
2023/04/24 09:55:20;;;;;;;;;17.25;14.75;;;;;;;;4977185;28;45345;-75
2023/04/24 09:57:50;;;;;;;;;16.50;15.25;;;;;;;;4976786;28;45506;-75
2023/04/24 10:00:22;;;;;;;;;14.25;14.25;;;;;;;;4976574;28;47221;-76
2023/04/24 10:02:51;;;;;;;;;17.00;15.00;;;;;;;;4977567;28;45444;-75
2023/04/24 10:05:17;;;;;;;;;14.25;14.25;;;;;;;;4978087;28;45390;-75
2023/04/24 10:07:43;;;;;;;;;15.50;14.25;;;;;;;;4978945;28;45423;-76
2023/04/24 10:10:08;;;;;;;;;17.75;15.00;;;;;;;;4977108;28;45337;-76
2023/04/24 10:12:34;;;;;;;;;12.50;11.75;;;;;;;;4976488;28;45521;-76
2023/04/24 10:15:01;;;;;;;;;9.00;9.00;;;;;;;;4976941;28;45409;-75
2023/04/24 10:17:28;;;;;;;;;13.25;13.25;;;;;;;;4977153;28;45336;-76
2023/04/24 10:19:54;;;;;;;;;20.25;14.50;;;;;;;;4976354;28;46123;-76
2023/04/24 10:22:19;;;;;;;;;13.50;13.50;;;;;;;;4975450;28;45677;-75
2023/04/24 10:24:45;;;;;;;;;13.50;12.75;;;;;;;;4976805;28;45424;-76
2023/04/24 10:27:11;;;;;;;;;16.00;13.00;;;;;;;;4976455;28;45315;-76
2023/04/24 10:29:37;;;;;;;;;14.00;13.00;;;;;;;;4974905;28;46652;-75
2023/04/24 10:32:02;;;;;;;;;14.50;13.50;;;;;;;;4976597;28;45384;-76
2023/04/24 10:34:28;;;;;;;;;13.50;13.50;;;;;;;;4976756;28;45309;-76
2023/04/24 10:36:55;;;;;;;;;14.00;14.00;;;;;;;;4976720;28;45353;-76
2023/04/24 10:39:21;;;;;;;;;15.00;14.00;;;;;;;;4975049;28;45852;-76
2023/04/24 10:41:49;;;;;;;;;15.75;15.75;;;;;;;;4975964;28;45468;-75
2023/04/24 10:44:14;;;;;;;;;13.00;11.25;;;;;;;;4975365;28;45504;-76
2023/04/24 10:46:43;;;;;;;;;9.00;8.25;;;;;;;;4976148;28;45361;-76
2023/04/24 10:49:08;;;;;;;;;14.75;12.25;;;;;;;;4964790;28;48609;-76
2023/04/24 10:51:49;;;;;;;;;12.75;11.75;;;;;;;;4956771;28;45350;-77
2023/04/24 10:54:24;;;;;;;;;6.75;6.75;;;;;;;;4956877;28;45452;-76
2023/04/24 10:56:52;;;;;;;;;11.25;11.25;;;;;;;;4973758;28;45445;-76
2023/04/24 10:59:25;;;;;;;;;11.25;9.75;;;;;;;;4975686;28;46407;-76
2023/04/24 11:01:55;;;;;;;;;12.00;11.00;;;;;;;;4976034;28;45434;-75
2023/04/24 11:04:29;;;;;;;;;12.50;11.25;;;;;;;;4976032;28;45451;-76
2023/04/24 11:06:55;;;;;;;;;12.50;11.50;;;;;;;;4975872;28;45940;-76
2023/04/24 11:09:20;;;;;;;;;9.75;9.75;;;;;;;;4975377;28;46013;-76
2023/04/24 11:11:46;;;;;;;;;15.00;14.00;;;;;;;;4976177;28;45394;-76
2023/04/24 11:14:14;;;;;;;;;13.00;12.25;;;;;;;;4976100;28;45449;-76
2023/04/24 11:16:52;;;;;;;;;12.25;11.25;;;;;;;;4975745;28;45414;-77
2023/04/24 11:19:19;;;;;;;;;9.75;9.00;;;;;;;;4975722;28;45664;-76
2023/04/24 11:21:44;;;;;;;;;11.75;10.75;;;;;;;;4975589;28;45359;-75
2023/04/24 11:24:24;;;;;;;;;13.75;11.50;;;;;;;;4975953;28;45696;-75
2023/04/24 11:26:51;;;;;;;;;12.00;12.00;;;;;;;;4976091;28;45303;-75
2023/04/24 11:29:19;;;;;;;;;12.25;12.00;;;;;;;;4974777;28;48446;-75
2023/04/24 11:31:49;;;;;;;;;10.50;9.00;;;;;;;;4975516;28;45312;-75
2023/04/24 11:34:16;;;;;;;;;12.00;10.75;;;;;;;;4975863;28;45476;-74
2023/04/24 11:36:45;;;;;;;;;13.75;12.25;;;;;;;;4962081;28;45362;-75
2023/04/24 11:39:11;;;;;;;;;11.25;11.25;;;;;;;;4954429;28;47795;-78
2023/04/24 11:41:36;;;;;;;;;11.25;10.00;;;;;;;;4956156;28;45424;-76
2023/04/24 11:44:03;;;;;;;;;9.25;9.00;;;;;;;;4967250;28;45334;-75
2023/04/24 11:46:29;;;;;;;;;10.25;9.25;;;;;;;;4975861;28;45384;-75
2023/04/24 11:48:54;;;;;;;;;11.00;7.00;;;;;;;;4964386;28;45571;-78
2023/04/24 11:51:20;;;;;;;;;5.50;4.75;;;;;;;;4955029;28;45303;-78
2023/04/24 11:53:45;;;;;;;;;7.75;7.75;;;;;;;;4956494;28;45506;-76
2023/04/24 11:56:10;;;;;;;;;9.50;8.25;;;;;;;;4958870;28;45298;-76
2023/04/24 11:58:36;;;;;;;;;8.25;8.25;;;;;;;;4959679;28;45913;-76
2023/04/24 12:01:01;;;;;;;;;6.00;4.00;;;;;;;;4959589;28;45356;-76
2023/04/24 12:03:26;;;;;;;;;6.00;6.00;;;;;;;;4965888;28;45218;-76
2023/04/24 12:05:51;;;;;;;;;5.00;4.00;;;;;;;;4979107;28;45334;-77
2023/04/24 12:08:29;;;;;;;;;7.00;7.00;;;;;;;;4978657;28;46018;-76
2023/04/24 12:10:54;;;;;;;;;6.00;6.00;;;;;;;;4978816;28;45423;-76
2023/04/24 12:13:20;;;;;;;;;7.25;6.50;;;;;;;;4977684;28;45605;-76
2023/04/24 12:15:45;;;;;;;;;6.50;5.25;;;;;;;;4977548;28;45622;-76
2023/04/24 12:18:12;;;;;;;;;5.75;5.75;;;;;;;;4978687;28;46375;-75
2023/04/24 12:20:37;;;;;;;;;8.00;5.50;;;;;;;;4978482;28;45412;-76
2023/04/24 12:23:02;;;;;;;;;5.00;5.00;;;;;;;;4978199;28;45532;-76
2023/04/24 12:25:29;;;;;;;;;10.00;9.50;;;;;;;;4978132;28;45385;-75
2023/04/24 12:27:55;;;;;;;;;5.00;4.75;;;;;;;;4978173;28;46291;-76
2023/04/24 12:30:21;;;;;;;;;6.75;6.75;;;;;;;;4978370;28;45373;-76
2023/04/24 12:32:47;;;;;;;;;8.00;8.00;;;;;;;;4976738;28;45398;-76
2023/04/24 12:35:13;;;;;;;;;7.00;7.00;;;;;;;;4978496;28;45274;-76
2023/04/24 12:37:39;;;;;;;;;6.25;6.25;;;;;;;;4977909;28;45424;-75
2023/04/24 12:40:11;;;;;;;;;5.50;5.50;;;;;;;;4978309;28;45370;-76
2023/04/24 12:42:42;;;;;;;;;3.75;3.75;;;;;;;;4978059;28;45330;-76
2023/04/24 12:45:07;;;;;;;;;8.00;7.00;;;;;;;;4978368;28;45369;-76
2023/04/24 12:47:33;;;;;;;;;4.00;4.00;;;;;;;;4977907;28;45723;-77
2023/04/24 12:49:59;;;;;;;;;5.00;4.75;;;;;;;;4960004;28;45473;-76
2023/04/24 12:52:25;;;;;;;;;5.00;5.00;;;;;;;;4958692;28;45408;-76
2023/04/24 12:54:52;;;;;;;;;4.00;4.00;;;;;;;;4958647;28;45375;-76
2023/04/24 12:57:17;;;;;;;;;3.50;3.00;;;;;;;;4958525;28;46362;-76
2023/04/24 12:59:43;;;;;;;;;6.75;6.25;;;;;;;;4957281;28;45338;-76
2023/04/24 13:02:09;;;;;;;;;2.00;1.25;;;;;;;;4958569;28;45429;-75
2023/04/24 13:04:35;;;;;;;;;4.00;4.00;;;;;;;;4958569;28;45425;-76
2023/04/24 13:07:00;;;;;;;;;5.25;4.50;;;;;;;;4957383;28;47231;-76
2023/04/24 13:09:25;;;;;;;;;7.00;7.00;;;;;;;;4958516;28;45382;-75
2023/04/24 13:11:50;;;;;;;;;4.00;4.00;;;;;;;;4958769;28;45512;-75
2023/04/24 13:14:16;;;;;;;;;4.00;4.00;;;;;;;;4958582;28;45410;-76
2023/04/24 13:16:41;;;;;;;;;2.75;2.75;;;;;;;;4974565;28;46380;-76
2023/04/24 13:19:06;;;;;;;;;3.50;3.50;;;;;;;;4978000;28;45429;-75
2023/04/24 13:21:31;;;;;;;;;4.50;4.50;;;;;;;;4979011;28;45596;-76
2023/04/24 13:23:56;;;;;;;;;5.50;5.50;;;;;;;;4979089;28;45529;-76
2023/04/24 13:26:22;;;;;;;;;5.00;3.00;;;;;;;;4978612;28;46290;-76
2023/04/24 13:28:47;;;;;;;;;3.00;3.00;;;;;;;;4978540;28;45366;-75
2023/04/24 13:31:13;;;;;;;;;1.25;1.25;;;;;;;;4978927;28;45616;-75
2023/04/24 13:33:38;;;;;;;;;4.00;4.00;;;;;;;;4978789;28;45417;-76
2023/04/24 13:36:04;;;;;;;;;3.25;3.25;;;;;;;;4978323;28;45898;-76
2023/04/24 13:38:29;;;;;;;;;4.00;4.00;;;;;;;;4977977;28;45483;-76
2023/04/24 13:40:54;;;;;;;;;3.50;3.50;;;;;;;;4977499;28;45524;-75
2023/04/24 13:43:19;;;;;;;;;4.00;3.25;;;;;;;;4977853;28;45434;-77
2023/04/24 13:45:45;;;;;;;;;5.50;2.00;;;;;;;;4977037;28;45516;-76
2023/04/24 13:48:10;;;;;;;;;2.00;2.00;;;;;;;;4973228;28;45486;-76
2023/04/24 13:50:35;;;;;;;;;2.00;2.00;;;;;;;;4958224;28;45355;-76
2023/04/24 13:53:01;;;;;;;;;5.25;5.25;;;;;;;;4976680;28;45307;-76
2023/04/24 13:55:27;;;;;;;;;5.00;5.00;;;;;;;;4977228;28;46379;-76
2023/04/24 13:57:54;;;;;;;;;3.50;3.00;;;;;;;;4977304;28;45329;-77
2023/04/24 14:00:20;;;;;;;;;5.25;4.00;;;;;;;;4977371;28;45592;-77
2023/04/24 14:02:45;;;;;;;;;2.50;2.50;;;;;;;;4976665;28;45465;-76
2023/04/24 14:05:11;;;;;;;;;3.00;3.00;;;;;;;;4975645;28;45408;-76
2023/04/24 14:07:36;;;;;;;;;5.00;4.00;;;;;;;;4977031;28;45385;-77
2023/04/24 14:10:01;;;;;;;;;3.25;3.00;;;;;;;;4977286;28;45420;-77
2023/04/24 14:12:27;;;;;;;;;2.75;2.75;;;;;;;;4977113;28;45412;-76
2023/04/24 14:14:52;;;;;;;;;5.00;5.00;;;;;;;;4975364;28;45793;-77
2023/04/24 14:17:17;;;;;;;;;3.75;3.00;;;;;;;;4976516;28;45472;-76
2023/04/24 14:19:42;;;;;;;;;2.00;2.00;;;;;;;;4976811;28;45450;-75
2023/04/24 14:22:08;;;;;;;;;6.00;5.50;;;;;;;;4976968;28;45310;-75
2023/04/24 14:24:33;;;;;;;;;1.50;1.50;;;;;;;;4975621;28;46170;-76
2023/04/24 14:26:58;;;;;;;;;2.00;2.00;;;;;;;;4976424;28;45421;-76
2023/04/24 14:29:25;;;;;;;;;4.75;4.75;;;;;;;;4976773;28;45325;-77